KMMI

McMinn County Airport

Athens, Tennessee, USA
METAR KMMI 202355Z AUTO 00000KT 10SM CLR 27/23 A2999 RMK A01
Observed Flight Rules
Aug-20 @ 23:55 UTC (14 minutes ago) Visual Flight Rules
Visibility Clouds
10 miles
  • Clear skies
Temperatures Readings
Current 27°C / 81°F
Dewpoint 23°C / 73°F
Humidity 79%
Altimeter 29.99" Hg
Pressure 1016 hPa
Elevation 266
METAR KMMI 202355Z AUTO 00000KT 10SM CLR 27/23 A2999 RMK A01
Observed Flight Rules
Aug-20 @ 23:55 UTC
(14 minutes ago)
VFR
Clouds
  • Clear skies
Temperature Dewpoint
27°C / 81°F 23°C / 73°F
Humidity Altimeter Pressure
79% 29.99" Hg 1016 hPa